Time;durP1;ratioP1;P1;durP2;ratioP2;P2;SDS_P1;SDS_P2;PMS_P1;PMS_P2;Temp;Humidity;BMP_temperature;BMP_pressure;BME280_temperature;BME280_humidity;BME280_pressure;Samples;Min_cycle;Max_cycle;Signal;HPM_P1;HPM_P2
2023/03/07 00:01:32;;;;;;;13.38;7.43;;;3.90;99.90;;;;;;5086507;28;20031;-67
2023/03/07 00:04:00;;;;;;;12.15;6.53;;;3.90;99.90;;;;;;5074352;28;20039;-67
2023/03/07 00:06:26;;;;;;;12.35;5.97;;;3.90;99.90;;;;;;5073898;28;20123;-67
2023/03/07 00:08:54;;;;;;;11.70;6.07;;;3.90;99.90;;;;;;5074010;28;20119;-67
2023/03/07 00:11:20;;;;;;;11.23;5.35;;;3.90;99.90;;;;;;5072162;28;20438;-67
2023/03/07 00:13:45;;;;;;;11.80;5.65;;;4.00;99.90;;;;;;5088457;28;20040;-67
2023/03/07 00:16:13;;;;;;;11.85;5.60;;;4.00;99.90;;;;;;5073905;28;20132;-67
2023/03/07 00:18:40;;;;;;;11.77;5.20;;;4.00;99.90;;;;;;5091356;28;20097;-67
2023/03/07 00:21:08;;;;;;;10.73;5.13;;;3.90;99.90;;;;;;5090834;28;20093;-67
2023/03/07 00:23:35;;;;;;;11.45;5.20;;;3.90;99.90;;;;;;5090797;28;20135;-67
2023/03/07 00:26:04;;;;;;;11.00;5.00;;;3.90;99.90;;;;;;5066495;28;20044;-68
2023/03/07 00:28:29;;;;;;;11.93;4.90;;;3.90;99.90;;;;;;5072767;28;20075;-67
2023/03/07 00:31:00;;;;;;;9.13;3.55;;;4.00;99.90;;;;;;5076748;28;20040;-68
2023/03/07 00:33:25;;;;;;;7.65;2.22;;;4.00;99.90;;;;;;5091799;28;20046;-67
2023/03/07 00:36:03;;;;;;;7.93;2.30;;;4.10;99.90;;;;;;5094585;28;20028;-67
2023/03/07 00:38:30;;;;;;;6.65;1.60;;;4.00;99.90;;;;;;5108656;27;20040;-67
2023/03/07 00:41:01;;;;;;;3.78;1.30;;;4.00;99.90;;;;;;5074674;28;20062;-67
2023/03/07 00:43:27;;;;;;;2.72;1.10;;;3.90;99.90;;;;;;5074561;28;20127;-68
2023/03/07 00:45:53;;;;;;;4.38;1.73;;;3.90;99.90;;;;;;5070361;28;20036;-67
2023/03/07 00:48:18;;;;;;;5.75;1.13;;;4.00;99.90;;;;;;5072928;28;20081;-67
2023/03/07 00:50:44;;;;;;;10.63;1.40;;;3.90;99.90;;;;;;5092496;28;20504;-68
2023/03/07 00:53:10;;;;;;;4.05;1.23;;;3.90;99.90;;;;;;5110921;28;20408;-67
2023/03/07 00:55:35;;;;;;;3.22;0.98;;;3.80;99.90;;;;;;5089540;28;20071;-67
2023/03/07 00:58:01;;;;;;;5.95;1.92;;;3.80;99.90;;;;;;5128513;27;20446;-67
2023/03/07 01:00:26;;;;;;;2.85;0.90;;;3.80;99.90;;;;;;5107086;28;20034;-67
2023/03/07 01:02:52;;;;;;;2.67;0.77;;;3.80;99.90;;;;;;5111447;28;20452;-67
2023/03/07 01:05:17;;;;;;;4.70;0.90;;;3.80;99.90;;;;;;5111873;28;20042;-67
2023/03/07 01:07:43;;;;;;;7.13;0.80;;;3.80;99.90;;;;;;5112280;27;20044;-67
2023/03/07 01:10:09;;;;;;;7.07;1.38;;;3.80;99.90;;;;;;5091013;28;20048;-67
2023/03/07 01:12:35;;;;;;;2.97;0.80;;;3.80;99.90;;;;;;5084726;28;20040;-67
2023/03/07 01:15:01;;;;;;;3.80;1.00;;;3.80;99.90;;;;;;5109666;28;20037;-68
2023/03/07 01:17:27;;;;;;;3.25;0.80;;;3.80;99.90;;;;;;5092920;28;20438;-67
2023/03/07 01:19:53;;;;;;;2.75;0.77;;;3.90;99.90;;;;;;5127891;27;20032;-68
2023/03/07 01:22:18;;;;;;;3.42;0.90;;;4.00;99.90;;;;;;5128151;27;20501;-67
2023/03/07 01:24:44;;;;;;;6.05;1.08;;;4.00;99.90;;;;;;5114173;27;20040;-67
2023/03/07 01:27:09;;;;;;;4.25;0.77;;;4.10;99.90;;;;;;5090540;28;20036;-67
2023/03/07 01:29:35;;;;;;;5.60;0.95;;;4.20;99.90;;;;;;5090525;28;20040;-68
2023/03/07 01:32:00;;;;;;;5.20;1.00;;;4.10;99.90;;;;;;5073789;28;20044;-67
2023/03/07 01:34:26;;;;;;;5.03;1.30;;;4.00;99.90;;;;;;5107476;28;20044;-67
2023/03/07 01:36:51;;;;;;;4.68;1.00;;;4.00;99.90;;;;;;5077582;28;20518;-67
2023/03/07 01:39:17;;;;;;;2.53;1.00;;;4.00;99.90;;;;;;5107251;28;20043;-67
2023/03/07 01:41:44;;;;;;;6.07;1.05;;;4.20;99.90;;;;;;5084466;28;20042;-67
2023/03/07 01:44:16;;;;;;;4.32;0.80;;;4.10;99.90;;;;;;5075891;28;20047;-67
2023/03/07 01:46:45;;;;;;;4.13;0.80;;;4.10;99.90;;;;;;5076936;28;20065;-68
2023/03/07 01:49:31;;;;;;;5.35;1.20;;;4.10;99.90;;;;;;5093526;28;20066;-67
2023/03/07 01:52:05;;;;;;;4.40;0.90;;;4.10;99.90;;;;;;5092923;28;20044;-67
2023/03/07 01:54:33;;;;;;;4.28;1.05;;;4.10;99.90;;;;;;5093495;28;20127;-68
2023/03/07 01:57:01;;;;;;;4.05;0.88;;;4.10;99.90;;;;;;5092477;28;20058;-68
2023/03/07 01:59:39;;;;;;;4.13;0.82;;;4.10;99.90;;;;;;5063530;28;20040;-67
2023/03/07 02:02:10;;;;;;;4.57;1.05;;;4.10;99.90;;;;;;5090076;28;20064;-68
2023/03/07 02:05:04;;;;;;;6.05;1.65;;;4.10;99.90;;;;;;5073104;28;20079;-67
2023/03/07 02:07:34;;;;;;;5.60;1.00;;;4.10;99.90;;;;;;5087416;28;20047;-67
2023/03/07 02:10:00;;;;;;;7.30;1.00;;;4.10;99.90;;;;;;5091051;28;20395;-68
2023/03/07 02:12:26;;;;;;;5.68;1.50;;;4.10;99.90;;;;;;5075118;28;20074;-67
2023/03/07 02:14:52;;;;;;;5.05;1.23;;;4.10;99.90;;;;;;5076175;28;20050;-68
2023/03/07 02:17:18;;;;;;;4.68;0.98;;;4.20;99.90;;;;;;5075359;28;20036;-68
2023/03/07 02:20:01;;;;;;;8.73;1.15;;;4.20;99.90;;;;;;5076271;28;20415;-67
2023/03/07 02:22:27;;;;;;;3.65;1.05;;;4.10;99.90;;;;;;5076117;28;20044;-68
2023/03/07 02:25:08;;;;;;;5.55;0.93;;;4.10;99.90;;;;;;5092843;28;20040;-68
2023/03/07 02:27:36;;;;;;;11.80;1.58;;;4.20;99.90;;;;;;5092232;28;20040;-67
2023/03/07 02:30:03;;;;;;;8.35;1.10;;;4.20;99.90;;;;;;5092144;28;20040;-67
2023/03/07 02:32:28;;;;;;;8.35;1.33;;;4.00;99.90;;;;;;5125444;27;20097;-68
2023/03/07 02:34:54;;;;;;;6.22;1.05;;;4.00;99.90;;;;;;5126788;27;20052;-67
2023/03/07 02:37:34;;;;;;;7.60;1.25;;;4.00;99.90;;;;;;5125348;27;20039;-67
2023/03/07 02:40:05;;;;;;;6.20;1.30;;;4.00;99.90;;;;;;5075486;28;20035;-67
2023/03/07 02:42:34;;;;;;;8.27;1.70;;;4.10;99.90;;;;;;5091859;28;20396;-67
2023/03/07 02:45:03;;;;;;;9.50;1.40;;;4.10;99.90;;;;;;5092569;28;20093;-67
2023/03/07 02:47:28;;;;;;;5.70;1.00;;;4.00;99.90;;;;;;5090703;28;20044;-67
2023/03/07 02:49:54;;;;;;;9.73;1.20;;;4.00;99.90;;;;;;5074867;28;20063;-67
2023/03/07 02:52:21;;;;;;;6.57;0.95;;;3.90;99.90;;;;;;5126688;27;20430;-67
2023/03/07 02:54:46;;;;;;;7.00;1.25;;;4.00;99.90;;;;;;5092356;28;20044;-67
2023/03/07 02:57:13;;;;;;;8.95;1.02;;;3.90;99.90;;;;;;5126385;27;20051;-67
2023/03/07 02:59:39;;;;;;;5.00;1.00;;;3.90;99.90;;;;;;5092520;28;20062;-67
2023/03/07 03:02:05;;;;;;;6.70;1.08;;;3.80;99.90;;;;;;5125614;27;20484;-68
2023/03/07 03:04:30;;;;;;;6.63;0.93;;;3.90;99.90;;;;;;5125269;27;20089;-68
2023/03/07 03:06:56;;;;;;;5.15;1.00;;;3.80;99.90;;;;;;5126502;27;20455;-67
2023/03/07 03:09:21;;;;;;;7.90;1.02;;;3.80;99.90;;;;;;5109101;28;20079;-68
2023/03/07 03:11:47;;;;;;;8.10;1.27;;;3.70;99.90;;;;;;5069483;28;20055;-67
2023/03/07 03:14:13;;;;;;;8.32;1.20;;;3.60;99.90;;;;;;5074495;28;20069;-67
2023/03/07 03:16:39;;;;;;;11.43;1.27;;;3.60;99.90;;;;;;5059042;28;20112;-67
2023/03/07 03:19:05;;;;;;;10.93;1.20;;;3.60;99.90;;;;;;5083334;28;20578;-67
2023/03/07 03:21:31;;;;;;;7.82;0.93;;;3.50;99.90;;;;;;5092147;28;20036;-67
2023/03/07 03:23:56;;;;;;;6.25;1.30;;;3.50;99.90;;;;;;5109003;28;20554;-67
2023/03/07 03:26:22;;;;;;;14.13;1.45;;;3.50;99.90;;;;;;5091347;28;20040;-67
2023/03/07 03:28:48;;;;;;;8.02;1.52;;;3.50;99.90;;;;;;5125879;28;20063;-67
2023/03/07 03:31:14;;;;;;;7.18;1.00;;;3.50;99.90;;;;;;5125424;28;20143;-67
2023/03/07 03:33:41;;;;;;;8.80;1.25;;;3.40;99.90;;;;;;5126036;28;20492;-67
2023/03/07 03:36:13;;;;;;;9.50;1.20;;;3.40;99.90;;;;;;5091931;28;20040;-67
2023/03/07 03:38:39;;;;;;;8.57;1.20;;;3.40;99.90;;;;;;5107774;28;20028;-67
2023/03/07 03:41:10;;;;;;;7.63;1.02;;;3.30;99.90;;;;;;5107551;28;20055;-67
2023/03/07 03:43:36;;;;;;;6.95;1.52;;;3.30;99.90;;;;;;5091240;28;20044;-67
2023/03/07 03:46:02;;;;;;;5.75;0.93;;;3.30;99.90;;;;;;5074093;28;20050;-68
2023/03/07 03:48:29;;;;;;;8.13;1.85;;;3.30;99.90;;;;;;5108770;28;20072;-67
2023/03/07 03:51:06;;;;;;;6.72;1.00;;;3.30;99.90;;;;;;5080390;28;20048;-67
2023/03/07 03:53:35;;;;;;;11.85;1.20;;;3.30;99.90;;;;;;5088342;28;20504;-67
2023/03/07 03:56:11;;;;;;;5.88;1.25;;;3.30;99.90;;;;;;5108375;27;20049;-67
2023/03/07 03:58:37;;;;;;;7.18;1.20;;;3.30;99.90;;;;;;5091143;28;20405;-67
2023/03/07 04:01:08;;;;;;;4.55;0.82;;;3.20;99.90;;;;;;5107244;28;20097;-67
2023/03/07 04:03:36;;;;;;;7.30;1.00;;;3.20;99.90;;;;;;5092673;28;20044;-67
2023/03/07 04:06:03;;;;;;;8.00;1.20;;;3.20;99.90;;;;;;5112585;28;20040;-68
2023/03/07 04:08:30;;;;;;;6.20;1.60;;;3.20;99.90;;;;;;5095494;28;20044;-67
2023/03/07 04:10:55;;;;;;;9.82;0.98;;;3.20;99.90;;;;;;5076728;28;20050;-67
2023/03/07 04:13:21;;;;;;;7.95;1.58;;;3.20;99.90;;;;;;5093724;28;20454;-67
2023/03/07 04:15:47;;;;;;;5.95;1.15;;;3.20;99.90;;;;;;5127713;27;20036;-67
2023/03/07 04:18:12;;;;;;;4.90;0.82;;;3.20;99.90;;;;;;5078410;28;20385;-68
2023/03/07 04:20:38;;;;;;;10.18;1.20;;;3.20;99.90;;;;;;5095275;28;20040;-67
2023/03/07 04:23:04;;;;;;;8.75;1.02;;;3.10;99.90;;;;;;5076991;28;20066;-67
2023/03/07 04:25:29;;;;;;;6.45;0.95;;;3.10;99.90;;;;;;5107995;28;20032;-67
2023/03/07 04:27:55;;;;;;;6.18;1.58;;;3.10;99.90;;;;;;5108720;28;20045;-68
2023/03/07 04:30:20;;;;;;;8.25;1.02;;;3.10;99.90;;;;;;5091681;28;20036;-67
2023/03/07 04:32:46;;;;;;;7.10;1.10;;;3.10;99.90;;;;;;5107065;28;20039;-67
2023/03/07 04:35:11;;;;;;;6.30;1.15;;;3.10;99.90;;;;;;5094964;28;20032;-67
2023/03/07 04:37:37;;;;;;;7.82;1.33;;;3.10;99.90;;;;;;5129090;27;20093;-68
2023/03/07 04:40:03;;;;;;;8.05;1.45;;;3.10;99.90;;;;;;5111802;28;20044;-68
2023/03/07 04:42:28;;;;;;;8.50;1.40;;;3.10;99.90;;;;;;5076988;28;20039;-67
2023/03/07 04:44:54;;;;;;;13.25;1.73;;;3.00;99.90;;;;;;5076535;28;20044;-67
2023/03/07 04:47:20;;;;;;;7.70;1.00;;;3.00;99.90;;;;;;5077863;28;20480;-67
2023/03/07 04:49:45;;;;;;;6.25;1.15;;;3.00;99.90;;;;;;5094045;28;20051;-68
2023/03/07 04:52:11;;;;;;;12.07;1.10;;;3.00;99.90;;;;;;5111926;28;20123;-67
2023/03/07 04:54:36;;;;;;;6.63;0.90;;;3.00;99.90;;;;;;5110598;28;20089;-68
2023/03/07 04:57:02;;;;;;;7.88;1.35;;;3.10;99.90;;;;;;5111589;28;20047;-68
2023/03/07 04:59:28;;;;;;;10.30;1.23;;;3.00;99.90;;;;;;5111750;28;20032;-67
2023/03/07 05:01:53;;;;;;;10.40;1.33;;;3.10;99.90;;;;;;5128190;27;20059;-67
2023/03/07 05:04:19;;;;;;;8.32;0.90;;;3.10;99.90;;;;;;5111732;28;20032;-67
2023/03/07 05:06:44;;;;;;;8.10;1.30;;;3.10;99.90;;;;;;5110606;28;20487;-67
2023/03/07 05:09:10;;;;;;;7.13;1.10;;;3.10;99.90;;;;;;5076619;28;20078;-68
2023/03/07 05:11:35;;;;;;;7.38;1.10;;;3.10;99.90;;;;;;5092374;28;20032;-68
2023/03/07 05:14:01;;;;;;;6.05;0.88;;;3.10;99.90;;;;;;5091697;28;20404;-68
2023/03/07 05:16:27;;;;;;;6.05;1.02;;;3.20;99.90;;;;;;5092161;28;20365;-68
2023/03/07 05:18:52;;;;;;;7.55;1.10;;;3.20;99.90;;;;;;5117261;27;20028;-67
2023/03/07 05:21:18;;;;;;;5.55;0.90;;;3.10;99.90;;;;;;5119993;27;20037;-67
2023/03/07 05:23:43;;;;;;;8.10;1.10;;;3.10;99.90;;;;;;5089068;28;20043;-67
2023/03/07 05:26:09;;;;;;;9.65;1.13;;;3.20;99.90;;;;;;5104041;27;20044;-68
2023/03/07 05:28:34;;;;;;;5.22;1.00;;;3.20;99.90;;;;;;5082479;28;20032;-67
2023/03/07 05:31:00;;;;;;;5.45;1.02;;;3.20;99.90;;;;;;5126979;27;20126;-67
2023/03/07 05:33:25;;;;;;;10.52;2.05;;;3.10;99.90;;;;;;5076838;28;20404;-68
2023/03/07 05:35:51;;;;;;;8.50;1.00;;;3.20;99.90;;;;;;5076334;28;20032;-68
2023/03/07 05:38:17;;;;;;;7.45;1.15;;;3.20;99.90;;;;;;5093790;28;20059;-67
2023/03/07 05:40:43;;;;;;;9.38;1.45;;;3.20;99.90;;;;;;5092330;28;20059;-67
2023/03/07 05:43:09;;;;;;;12.55;1.58;;;3.20;99.90;;;;;;5075424;28;20504;-68
2023/03/07 05:45:34;;;;;;;7.03;0.90;;;3.20;99.90;;;;;;5093668;28;20039;-68
2023/03/07 05:48:00;;;;;;;6.50;1.05;;;3.20;99.90;;;;;;5127129;27;20148;-67
2023/03/07 05:50:26;;;;;;;7.55;1.13;;;3.20;99.90;;;;;;5092564;28;20122;-67
2023/03/07 05:52:51;;;;;;;9.20;1.35;;;3.20;99.90;;;;;;5093446;28;20036;-67
2023/03/07 05:55:17;;;;;;;8.10;1.20;;;3.20;99.90;;;;;;5092997;28;20411;-67
2023/03/07 05:57:43;;;;;;;8.88;1.38;;;3.20;99.90;;;;;;5107251;27;20045;-67
2023/03/07 06:00:10;;;;;;;6.75;1.27;;;3.20;99.90;;;;;;5082452;28;20042;-68
2023/03/07 06:02:35;;;;;;;11.23;1.63;;;3.20;99.90;;;;;;5093632;28;20434;-67
2023/03/07 06:05:01;;;;;;;4.55;0.80;;;3.30;99.90;;;;;;5092319;28;20074;-68
2023/03/07 06:07:27;;;;;;;7.80;1.15;;;3.30;99.90;;;;;;5076462;28;20039;-67
2023/03/07 06:09:52;;;;;;;4.07;1.17;;;3.30;99.90;;;;;;5092222;28;20044;-67
2023/03/07 06:12:18;;;;;;;9.73;1.20;;;3.40;99.90;;;;;;5072121;28;20036;-67
2023/03/07 06:14:43;;;;;;;6.55;1.40;;;3.30;99.90;;;;;;5113472;27;20414;-67
2023/03/07 06:17:09;;;;;;;11.07;1.35;;;3.30;99.90;;;;;;5079659;28;20083;-67
2023/03/07 06:19:34;;;;;;;7.93;1.58;;;3.30;99.90;;;;;;5111180;27;20032;-67
2023/03/07 06:22:00;;;;;;;11.30;1.55;;;3.30;99.90;;;;;;5092120;28;20146;-67
2023/03/07 06:24:25;;;;;;;7.45;1.27;;;3.30;99.90;;;;;;5092757;28;20479;-68
2023/03/07 06:26:51;;;;;;;11.82;2.17;;;3.20;99.90;;;;;;5073698;28;20036;-67
2023/03/07 06:29:16;;;;;;;6.85;1.48;;;3.20;99.90;;;;;;5126902;27;20051;-67
2023/03/07 06:31:42;;;;;;;9.48;1.10;;;3.30;99.90;;;;;;5096109;28;20046;-67
2023/03/07 06:34:07;;;;;;;8.40;1.50;;;3.30;99.90;;;;;;5126200;27;20063;-68
2023/03/07 06:36:33;;;;;;;7.10;1.63;;;3.30;99.90;;;;;;5118749;27;20111;-68
2023/03/07 06:38:59;;;;;;;9.50;1.80;;;3.30;99.90;;;;;;5113890;27;20085;-67
2023/03/07 06:41:24;;;;;;;7.32;1.52;;;3.30;99.90;;;;;;5099792;27;20051;-68
2023/03/07 06:43:53;;;;;;;7.55;1.20;;;3.30;99.90;;;;;;5074143;28;20039;-67
2023/03/07 06:46:20;;;;;;;8.95;1.35;;;3.20;99.90;;;;;;5107904;28;20071;-67
2023/03/07 06:48:45;;;;;;;6.32;1.08;;;3.20;99.90;;;;;;5073580;28;20072;-67
2023/03/07 06:51:11;;;;;;;7.15;0.80;;;3.20;99.90;;;;;;5075444;28;20072;-68
2023/03/07 06:53:37;;;;;;;7.90;1.52;;;3.20;99.90;;;;;;5069347;28;20064;-67
2023/03/07 06:56:03;;;;;;;5.55;0.93;;;3.20;99.90;;;;;;5119936;27;20123;-67
2023/03/07 06:58:28;;;;;;;7.93;1.42;;;3.20;99.90;;;;;;5109318;28;20036;-67
2023/03/07 07:00:54;;;;;;;8.02;2.03;;;3.20;99.90;;;;;;5105924;28;20050;-68
2023/03/07 07:03:20;;;;;;;4.68;0.95;;;3.20;99.90;;;;;;5125938;27;20115;-68
2023/03/07 07:05:45;;;;;;;4.85;0.90;;;3.20;99.90;;;;;;5088045;28;20057;-67
2023/03/07 07:08:11;;;;;;;7.43;1.92;;;3.10;99.90;;;;;;5110157;27;20040;-67
2023/03/07 07:10:37;;;;;;;6.70;1.20;;;3.00;99.90;;;;;;5086567;28;20040;-67
2023/03/07 07:13:03;;;;;;;8.68;1.00;;;3.10;99.90;;;;;;5090382;28;20028;-67
2023/03/07 07:15:30;;;;;;;8.80;1.25;;;3.10;99.90;;;;;;5091584;28;20385;-67
2023/03/07 07:17:55;;;;;;;3.88;0.80;;;3.00;99.90;;;;;;5090739;28;20440;-67
2023/03/07 07:20:21;;;;;;;5.00;1.10;;;3.00;99.90;;;;;;5090972;28;20078;-69
2023/03/07 07:22:47;;;;;;;5.55;0.80;;;3.00;99.90;;;;;;5124713;27;20413;-69
2023/03/07 07:25:13;;;;;;;6.07;0.90;;;3.00;99.90;;;;;;5109030;28;20039;-69
2023/03/07 07:27:39;;;;;;;4.03;0.80;;;3.00;99.90;;;;;;5090900;28;20052;-69
2023/03/07 07:30:06;;;;;;;5.78;1.65;;;3.00;99.90;;;;;;5091274;28;20042;-69
2023/03/07 07:32:32;;;;;;;7.25;1.15;;;3.00;99.90;;;;;;5091849;28;20063;-68
2023/03/07 07:34:57;;;;;;;3.88;0.98;;;3.00;99.90;;;;;;5074314;28;20044;-69
2023/03/07 07:37:23;;;;;;;4.68;0.82;;;3.00;99.90;;;;;;5075109;28;20400;-70
2023/03/07 07:39:49;;;;;;;4.53;0.88;;;3.00;99.90;;;;;;5077876;28;20032;-69
2023/03/07 07:42:15;;;;;;;6.13;0.75;;;3.10;99.90;;;;;;5078080;28;20365;-69
2023/03/07 07:44:40;;;;;;;4.55;1.10;;;3.10;99.90;;;;;;5079090;28;20042;-69
2023/03/07 07:47:06;;;;;;;3.50;0.80;;;3.10;99.90;;;;;;5095286;28;20427;-69
2023/03/07 07:49:32;;;;;;;6.43;0.70;;;3.20;99.90;;;;;;5096021;28;20036;-69
2023/03/07 07:51:57;;;;;;;4.32;0.82;;;3.20;99.90;;;;;;5094685;28;20414;-69
2023/03/07 07:54:23;;;;;;;3.47;0.85;;;3.10;99.90;;;;;;5092912;28;20044;-69
2023/03/07 07:56:49;;;;;;;4.05;0.98;;;3.10;99.90;;;;;;5093555;28;20044;-69
2023/03/07 07:59:15;;;;;;;6.10;0.98;;;3.10;99.90;;;;;;5096042;28;20430;-69
2023/03/07 08:01:40;;;;;;;7.15;0.90;;;3.20;99.90;;;;;;5094531;28;20089;-68
2023/03/07 08:04:06;;;;;;;5.65;1.05;;;3.20;99.90;;;;;;5095657;28;20086;-69
2023/03/07 08:06:31;;;;;;;6.82;1.10;;;3.30;99.90;;;;;;5094640;28;20036;-69
2023/03/07 08:08:58;;;;;;;2.22;0.60;;;3.20;99.90;;;;;;5078739;28;20036;-69
2023/03/07 08:11:24;;;;;;;4.57;0.75;;;3.20;99.90;;;;;;5093152;28;20050;-69
2023/03/07 08:13:50;;;;;;;6.68;0.98;;;3.30;99.90;;;;;;5095447;28;20044;-69
2023/03/07 08:16:21;;;;;;;2.63;0.70;;;3.20;99.90;;;;;;5078191;28;20074;-69
2023/03/07 08:18:55;;;;;;;3.57;0.80;;;3.20;99.90;;;;;;5077696;28;20050;-69
2023/03/07 08:21:22;;;;;;;4.65;0.80;;;3.30;99.90;;;;;;5095371;28;20281;-69
2023/03/07 08:23:48;;;;;;;3.53;0.70;;;3.30;99.90;;;;;;5077875;28;20439;-69
2023/03/07 08:26:14;;;;;;;5.65;0.68;;;3.30;99.90;;;;;;5094065;28;20050;-69
2023/03/07 08:28:40;;;;;;;3.45;0.73;;;3.30;99.90;;;;;;5095167;28;20518;-69
2023/03/07 08:31:12;;;;;;;3.33;0.65;;;3.40;99.90;;;;;;5093474;28;20074;-69
2023/03/07 08:33:38;;;;;;;3.92;0.77;;;3.40;99.90;;;;;;5093931;28;20055;-69
2023/03/07 08:36:04;;;;;;;4.63;0.70;;;3.30;99.90;;;;;;5095338;28;20040;-70
2023/03/07 08:38:31;;;;;;;3.63;0.73;;;3.40;99.90;;;;;;5093945;28;20062;-70
2023/03/07 08:41:00;;;;;;;2.42;0.60;;;3.30;99.90;;;;;;5094239;28;20040;-69
2023/03/07 08:43:29;;;;;;;6.38;1.65;;;3.40;99.90;;;;;;5077212;28;20044;-70
2023/03/07 08:45:55;;;;;;;4.15;0.80;;;3.40;99.90;;;;;;5094889;28;20534;-69
2023/03/07 08:48:20;;;;;;;4.22;0.90;;;3.40;99.90;;;;;;5077510;28;20454;-69
2023/03/07 08:50:46;;;;;;;4.40;0.70;;;3.40;99.90;;;;;;5094569;28;20040;-70
2023/03/07 08:53:13;;;;;;;6.00;0.70;;;3.40;99.90;;;;;;5093836;28;20036;-69
2023/03/07 08:55:39;;;;;;;3.53;0.60;;;3.40;99.90;;;;;;5076835;28;20044;-69
2023/03/07 08:58:04;;;;;;;4.15;1.10;;;3.40;99.90;;;;;;5127770;27;20038;-69
2023/03/07 09:00:30;;;;;;;5.28;0.88;;;3.50;99.90;;;;;;5093557;28;20047;-69
2023/03/07 09:02:57;;;;;;;5.47;0.85;;;3.50;99.90;;;;;;5094408;28;20043;-69
2023/03/07 09:05:23;;;;;;;4.10;0.70;;;3.50;99.90;;;;;;5093703;28;20036;-69
2023/03/07 09:07:49;;;;;;;3.33;0.88;;;3.60;99.90;;;;;;5077621;28;20047;-68
2023/03/07 09:10:16;;;;;;;4.55;0.80;;;3.70;99.90;;;;;;5093744;28;20044;-69
2023/03/07 09:12:42;;;;;;;7.55;1.52;;;3.70;99.90;;;;;;5083125;28;20507;-69
2023/03/07 09:15:08;;;;;;;5.80;0.82;;;3.70;99.90;;;;;;5106244;27;20040;-71
2023/03/07 09:17:34;;;;;;;5.95;1.05;;;3.90;99.90;;;;;;5076699;28;20044;-69
2023/03/07 09:19:59;;;;;;;3.80;0.80;;;3.70;99.90;;;;;;5087240;28;20036;-68
2023/03/07 09:22:26;;;;;;;7.28;1.05;;;3.70;99.90;;;;;;5107417;27;20036;-69
2023/03/07 09:24:51;;;;;;;5.75;1.10;;;3.70;99.90;;;;;;5081428;28;20036;-68
2023/03/07 09:27:17;;;;;;;5.13;0.70;;;3.70;99.90;;;;;;5094115;28;20051;-68
2023/03/07 09:29:43;;;;;;;5.53;0.75;;;3.60;99.90;;;;;;5076211;28;20075;-69
2023/03/07 09:32:09;;;;;;;3.55;0.70;;;3.50;99.90;;;;;;5092186;28;20036;-68
2023/03/07 09:34:35;;;;;;;7.47;1.23;;;3.50;99.90;;;;;;5076254;28;20047;-68
2023/03/07 09:37:00;;;;;;;3.83;0.85;;;3.50;99.90;;;;;;5094225;28;20127;-69
2023/03/07 09:39:26;;;;;;;3.38;1.00;;;3.30;99.90;;;;;;5086089;28;20097;-68
2023/03/07 09:42:16;;;;;;;4.43;0.68;;;3.30;99.90;;;;;;5107608;28;20403;-68
2023/03/07 09:44:53;;;;;;;6.13;1.00;;;3.20;99.90;;;;;;5073477;28;20071;-68
2023/03/07 09:47:53;;;;;;;5.50;0.80;;;3.10;99.90;;;;;;5073818;28;20041;-68
2023/03/07 09:50:43;;;;;;;2.42;0.60;;;3.10;99.90;;;;;;5073153;28;20119;-68
2023/03/07 09:53:21;;;;;;;3.80;0.98;;;3.40;99.90;;;;;;5056836;28;20396;-68
2023/03/07 09:55:50;;;;;;;4.70;1.15;;;3.40;99.90;;;;;;5101279;28;20032;-68
2023/03/07 09:58:20;;;;;;;5.15;0.82;;;3.40;99.90;;;;;;5091854;28;20567;-68
2023/03/07 10:00:48;;;;;;;5.10;0.80;;;3.50;99.90;;;;;;5093045;28;20036;-69
2023/03/07 10:03:32;;;;;;;4.53;0.98;;;3.40;99.90;;;;;;5092549;28;20484;-68
2023/03/07 10:06:13;;;;;;;4.57;0.80;;;3.40;99.90;;;;;;5058908;28;20051;-68
2023/03/07 10:08:39;;;;;;;3.90;0.95;;;3.30;99.90;;;;;;5093667;28;20388;-68
2023/03/07 10:11:07;;;;;;;6.20;1.00;;;3.30;99.90;;;;;;5126851;27;20051;-68
2023/03/07 10:14:09;;;;;;;5.30;0.95;;;3.40;99.90;;;;;;5088627;28;20493;-68
2023/03/07 10:16:47;;;;;;;7.93;1.27;;;3.50;99.90;;;;;;5089401;28;20366;-68
2023/03/07 10:19:16;;;;;;;7.55;2.35;;;3.40;99.90;;;;;;5079966;28;20139;-68
2023/03/07 10:22:19;;;;;;;4.60;1.00;;;3.40;99.90;;;;;;5086289;28;20044;-68
2023/03/07 10:25:00;;;;;;;8.65;1.00;;;3.40;99.90;;;;;;5073425;28;20438;-68
2023/03/07 10:27:29;;;;;;;4.88;1.05;;;3.50;99.90;;;;;;5084283;28;20523;-68
2023/03/07 10:29:58;;;;;;;8.32;1.30;;;3.60;99.90;;;;;;5084717;28;20117;-68
2023/03/07 10:32:43;;;;;;;11.40;1.67;;;3.70;99.90;;;;;;5116575;27;20037;-68
2023/03/07 10:35:12;;;;;;;8.88;1.58;;;3.80;99.90;;;;;;5106244;28;20086;-68
2023/03/07 10:37:50;;;;;;;9.85;1.20;;;3.90;99.90;;;;;;5088404;28;20066;-69
2023/03/07 10:40:28;;;;;;;7.35;1.52;;;4.00;99.90;;;;;;5075508;28;20035;-69
2023/03/07 10:42:55;;;;;;;5.75;1.17;;;4.10;99.90;;;;;;5091420;28;20499;-68
2023/03/07 10:45:21;;;;;;;8.80;1.27;;;4.20;99.90;;;;;;5075235;28;20100;-68
2023/03/07 10:47:46;;;;;;;8.93;1.15;;;4.20;99.90;;;;;;5089663;28;20485;-68
2023/03/07 10:50:20;;;;;;;7.43;1.13;;;4.30;99.90;;;;;;5103239;27;20043;-68
2023/03/07 10:52:52;;;;;;;9.48;1.60;;;4.40;99.90;;;;;;5080873;28;20068;-68
2023/03/07 10:55:35;;;;;;;7.25;1.38;;;4.50;99.90;;;;;;5098266;27;20446;-68
2023/03/07 10:58:26;;;;;;;8.65;1.10;;;4.50;99.90;;;;;;5091268;28;20044;-69
2023/03/07 11:01:15;;;;;;;4.97;1.15;;;4.60;99.90;;;;;;5099120;28;20202;-68
2023/03/07 11:03:51;;;;;;;6.47;1.05;;;4.60;99.90;;;;;;5108811;27;20093;-68
2023/03/07 11:06:51;;;;;;;7.30;1.00;;;4.60;99.90;;;;;;5078780;28;20400;-68
2023/03/07 11:09:45;;;;;;;6.82;1.40;;;4.70;99.90;;;;;;5072277;28;20041;-69
2023/03/07 11:12:17;;;;;;;7.93;1.33;;;4.70;99.90;;;;;;5087804;28;20570;-68
2023/03/07 11:14:47;;;;;;;8.93;1.50;;;4.70;99.90;;;;;;5073985;28;20507;-69
2023/03/07 11:17:43;;;;;;;6.93;1.20;;;4.80;99.90;;;;;;5091736;28;20044;-68
2023/03/07 11:20:28;;;;;;;6.55;0.90;;;4.90;99.90;;;;;;5056483;28;20059;-68
2023/03/07 11:23:24;;;;;;;4.97;1.10;;;5.00;99.90;;;;;;5069450;28;20076;-68
2023/03/07 11:25:51;;;;;;;6.18;1.30;;;5.00;99.90;;;;;;5082972;28;20062;-69
2023/03/07 11:28:25;;;;;;;7.32;1.10;;;5.00;99.90;;;;;;5070977;28;20042;-68
2023/03/07 11:30:57;;;;;;;8.45;1.40;;;5.00;99.90;;;;;;5110976;27;20392;-68
2023/03/07 11:33:46;;;;;;;8.43;1.30;;;5.10;99.90;;;;;;5075066;28;20036;-68
2023/03/07 11:36:15;;;;;;;8.95;1.38;;;5.00;99.90;;;;;;5083835;28;20051;-68
2023/03/07 11:38:59;;;;;;;8.77;1.10;;;5.00;99.90;;;;;;5078137;28;20048;-68
2023/03/07 11:41:33;;;;;;;9.27;1.40;;;5.10;99.90;;;;;;5105355;28;20093;-68
2023/03/07 11:44:22;;;;;;;7.22;1.10;;;5.00;99.90;;;;;;5087209;28;20053;-68
2023/03/07 11:47:11;;;;;;;6.40;1.10;;;5.10;99.90;;;;;;5104223;28;20097;-68
2023/03/07 11:49:43;;;;;;;4.55;0.93;;;5.10;99.90;;;;;;5075783;28;20051;-68
2023/03/07 11:52:46;;;;;;;5.22;1.00;;;5.10;99.90;;;;;;5106376;28;20496;-68
2023/03/07 11:55:33;;;;;;;6.78;1.17;;;5.00;99.90;;;;;;5086591;28;20041;-68
2023/03/07 11:58:02;;;;;;;6.85;1.27;;;5.00;99.90;;;;;;5085787;28;20396;-69
2023/03/07 12:00:45;;;;;;;9.70;2.15;;;5.10;99.90;;;;;;5117668;27;20055;-79
2023/03/07 12:03:31;;;;;;;7.68;1.02;;;5.00;99.90;;;;;;5072714;28;20109;-69
2023/03/07 12:06:12;;;;;;;8.02;1.30;;;5.10;99.90;;;;;;5088136;28;20993;-69
2023/03/07 12:08:43;;;;;;;10.35;1.52;;;5.20;99.90;;;;;;5070802;28;20067;-68
2023/03/07 12:11:15;;;;;;;4.07;0.77;;;5.20;99.90;;;;;;5074567;28;20503;-68
2023/03/07 12:13:53;;;;;;;8.80;1.30;;;5.20;99.90;;;;;;5072134;28;20032;-68
2023/03/07 12:16:43;;;;;;;5.03;0.98;;;5.30;99.90;;;;;;5102819;28;20044;-69
2023/03/07 12:19:25;;;;;;;6.60;1.70;;;5.20;99.90;;;;;;5084917;28;20041;-68
2023/03/07 12:22:01;;;;;;;6.63;0.90;;;4.90;99.90;;;;;;5107585;28;20036;-69
2023/03/07 12:24:53;;;;;;;6.30;1.00;;;4.90;99.90;;;;;;5087790;28;20051;-68
2023/03/07 12:27:24;;;;;;;;;;;4.70;99.90;;;;;;5090394;28;20071;-69
2023/03/07 12:29:57;;;;;;;5.10;1.13;;;4.80;99.90;;;;;;5064516;28;19916;-69
2023/03/07 12:32:26;;;;;;;5.75;1.77;;;4.70;99.90;;;;;;5086983;28;20032;-69
2023/03/07 12:34:58;;;;;;;6.88;0.90;;;4.70;99.90;;;;;;5128406;27;20035;-68
2023/03/07 12:37:33;;;;;;;7.53;1.00;;;4.60;99.90;;;;;;5109790;28;20040;-68
2023/03/07 12:40:08;;;;;;;6.70;1.25;;;4.60;99.90;;;;;;5083548;28;20046;-69
2023/03/07 12:42:58;;;;;;;7.40;1.17;;;4.70;99.90;;;;;;5084113;28;20124;-68
2023/03/07 12:45:34;;;;;;;5.38;0.90;;;4.70;99.90;;;;;;5077709;28;20404;-69
2023/03/07 12:48:07;;;;;;;7.22;1.17;;;4.80;99.90;;;;;;5067819;28;20384;-68
2023/03/07 12:50:55;;;;;;;5.57;1.10;;;4.80;99.90;;;;;;5097482;27;20065;-68
2023/03/07 12:53:47;;;;;;;8.27;1.00;;;4.90;99.90;;;;;;5120251;27;20047;-69
2023/03/07 12:56:31;;;;;;;7.30;2.38;;;5.00;99.90;;;;;;5093848;28;20052;-68
2023/03/07 12:59:14;;;;;;;7.10;1.00;;;5.00;99.90;;;;;;5105978;27;20086;-68
2023/03/07 13:01:54;;;;;;;3.80;1.05;;;5.00;99.90;;;;;;5094057;28;20105;-68
2023/03/07 13:04:23;;;;;;;6.18;1.27;;;4.90;99.90;;;;;;5072850;28;20048;-68
2023/03/07 13:06:49;;;;;;;7.10;1.50;;;4.90;99.90;;;;;;5107865;28;20051;-68
2023/03/07 13:09:25;;;;;;;3.75;0.98;;;4.90;99.90;;;;;;5107987;28;20050;-68